sensor_id;sensor_type;location;lat;lon;timestamp;temperature;humidity
56172;DHT22;42052;41.634;-0.946;2023-04-03T00:01:53;21.50;37.70
56172;DHT22;42052;41.634;-0.946;2023-04-03T00:04:39;21.50;37.70
56172;DHT22;42052;41.634;-0.946;2023-04-03T00:07:25;21.50;37.80
56172;DHT22;42052;41.634;-0.946;2023-04-03T00:10:12;21.50;37.90
56172;DHT22;42052;41.634;-0.946;2023-04-03T00:12:59;21.50;38.20
56172;DHT22;42052;41.634;-0.946;2023-04-03T00:15:45;21.50;38.30
56172;DHT22;42052;41.634;-0.946;2023-04-03T00:18:31;21.50;38.40
56172;DHT22;42052;41.634;-0.946;2023-04-03T00:21:17;21.50;38.60
56172;DHT22;42052;41.634;-0.946;2023-04-03T00:24:04;21.40;38.60
56172;DHT22;42052;41.634;-0.946;2023-04-03T00:26:50;21.40;37.60
56172;DHT22;42052;41.634;-0.946;2023-04-03T00:29:36;21.40;37.70
56172;DHT22;42052;41.634;-0.946;2023-04-03T00:32:22;21.50;38.00
56172;DHT22;42052;41.634;-0.946;2023-04-03T00:35:09;21.50;37.60
56172;DHT22;42052;41.634;-0.946;2023-04-03T00:37:56;21.50;38.20
56172;DHT22;42052;41.634;-0.946;2023-04-03T00:40:44;21.50;37.40
56172;DHT22;42052;41.634;-0.946;2023-04-03T00:43:30;21.50;37.40
56172;DHT22;42052;41.634;-0.946;2023-04-03T00:46:19;21.50;37.40
56172;DHT22;42052;41.634;-0.946;2023-04-03T00:49:06;21.50;37.50
56172;DHT22;42052;41.634;-0.946;2023-04-03T00:51:52;21.50;37.40
56172;DHT22;42052;41.634;-0.946;2023-04-03T00:54:40;21.50;37.30
56172;DHT22;42052;41.634;-0.946;2023-04-03T00:57:28;21.50;37.50
56172;DHT22;42052;41.634;-0.946;2023-04-03T01:00:19;21.50;37.30
56172;DHT22;42052;41.634;-0.946;2023-04-03T01:03:05;21.40;37.00
56172;DHT22;42052;41.634;-0.946;2023-04-03T01:05:52;21.50;37.00
56172;DHT22;42052;41.634;-0.946;2023-04-03T01:08:38;21.40;37.20
56172;DHT22;42052;41.634;-0.946;2023-04-03T01:11:24;21.40;37.10
56172;DHT22;42052;41.634;-0.946;2023-04-03T01:14:10;21.40;37.60
56172;DHT22;42052;41.634;-0.946;2023-04-03T01:16:56;21.40;37.00
56172;DHT22;42052;41.634;-0.946;2023-04-03T01:19:47;21.40;36.90
56172;DHT22;42052;41.634;-0.946;2023-04-03T01:25:50;21.40;37.00
56172;DHT22;42052;41.634;-0.946;2023-04-03T01:28:37;21.40;37.40
56172;DHT22;42052;41.634;-0.946;2023-04-03T01:31:31;21.40;36.90
56172;DHT22;42052;41.634;-0.946;2023-04-03T01:34:19;21.40;36.90
56172;DHT22;42052;41.634;-0.946;2023-04-03T01:37:05;21.40;37.00
56172;DHT22;42052;41.634;-0.946;2023-04-03T01:39:51;21.40;36.80
56172;DHT22;42052;41.634;-0.946;2023-04-03T01:42:37;21.40;37.20
56172;DHT22;42052;41.634;-0.946;2023-04-03T01:45:23;21.40;36.90
56172;DHT22;42052;41.634;-0.946;2023-04-03T01:48:10;21.40;37.10
56172;DHT22;42052;41.634;-0.946;2023-04-03T01:50:56;21.30;37.20
56172;DHT22;42052;41.634;-0.946;2023-04-03T01:53:42;21.30;37.20
56172;DHT22;42052;41.634;-0.946;2023-04-03T01:56:28;21.30;36.90
56172;DHT22;42052;41.634;-0.946;2023-04-03T01:59:14;21.40;37.10
56172;DHT22;42052;41.634;-0.946;2023-04-03T02:02:02;21.30;37.00
56172;DHT22;42052;41.634;-0.946;2023-04-03T02:04:48;21.30;37.50
56172;DHT22;42052;41.634;-0.946;2023-04-03T02:07:34;21.30;37.30
56172;DHT22;42052;41.634;-0.946;2023-04-03T02:10:21;21.30;37.20
56172;DHT22;42052;41.634;-0.946;2023-04-03T02:13:07;21.30;37.10
56172;DHT22;42052;41.634;-0.946;2023-04-03T02:15:53;21.30;37.10
56172;DHT22;42052;41.634;-0.946;2023-04-03T02:18:40;21.30;37.30
56172;DHT22;42052;41.634;-0.946;2023-04-03T02:21:26;21.30;37.70
56172;DHT22;42052;41.634;-0.946;2023-04-03T02:24:12;21.30;37.10
56172;DHT22;42052;41.634;-0.946;2023-04-03T02:26:58;21.30;37.20
56172;DHT22;42052;41.634;-0.946;2023-04-03T02:29:44;21.30;37.00
56172;DHT22;42052;41.634;-0.946;2023-04-03T02:32:31;21.30;37.20
56172;DHT22;42052;41.634;-0.946;2023-04-03T02:35:17;21.20;37.10
56172;DHT22;42052;41.634;-0.946;2023-04-03T02:38:03;21.30;37.40
56172;DHT22;42052;41.634;-0.946;2023-04-03T02:40:50;21.30;37.20
56172;DHT22;42052;41.634;-0.946;2023-04-03T02:43:37;21.30;37.20
56172;DHT22;42052;41.634;-0.946;2023-04-03T02:46:23;21.20;37.20
56172;DHT22;42052;41.634;-0.946;2023-04-03T02:49:09;21.30;37.10
56172;DHT22;42052;41.634;-0.946;2023-04-03T02:51:55;21.30;37.20
56172;DHT22;42052;41.634;-0.946;2023-04-03T02:54:41;21.20;37.10
56172;DHT22;42052;41.634;-0.946;2023-04-03T02:57:27;21.30;37.00
56172;DHT22;42052;41.634;-0.946;2023-04-03T03:00:14;21.20;36.90
56172;DHT22;42052;41.634;-0.946;2023-04-03T03:03:00;21.20;36.90
56172;DHT22;42052;41.634;-0.946;2023-04-03T03:05:46;21.20;37.00
56172;DHT22;42052;41.634;-0.946;2023-04-03T03:08:34;21.20;37.20
56172;DHT22;42052;41.634;-0.946;2023-04-03T03:11:21;21.20;37.00
56172;DHT22;42052;41.634;-0.946;2023-04-03T03:14:07;21.20;37.00
56172;DHT22;42052;41.634;-0.946;2023-04-03T03:16:53;21.20;36.80
56172;DHT22;42052;41.634;-0.946;2023-04-03T03:19:39;21.20;36.90
56172;DHT22;42052;41.634;-0.946;2023-04-03T03:22:25;21.20;37.00
56172;DHT22;42052;41.634;-0.946;2023-04-03T03:25:11;21.20;36.90
56172;DHT22;42052;41.634;-0.946;2023-04-03T03:27:58;21.20;36.90
56172;DHT22;42052;41.634;-0.946;2023-04-03T03:30:44;21.20;36.80
56172;DHT22;42052;41.634;-0.946;2023-04-03T03:33:30;21.20;37.00
56172;DHT22;42052;41.634;-0.946;2023-04-03T03:36:17;21.20;37.00
56172;DHT22;42052;41.634;-0.946;2023-04-03T03:39:03;21.20;37.20
56172;DHT22;42052;41.634;-0.946;2023-04-03T03:41:49;21.20;37.00
56172;DHT22;42052;41.634;-0.946;2023-04-03T03:44:35;21.20;36.80
56172;DHT22;42052;41.634;-0.946;2023-04-03T03:47:21;21.10;37.00
56172;DHT22;42052;41.634;-0.946;2023-04-03T03:50:08;21.10;36.80
56172;DHT22;42052;41.634;-0.946;2023-04-03T03:52:55;21.10;36.90
56172;DHT22;42052;41.634;-0.946;2023-04-03T03:55:41;21.10;36.60
56172;DHT22;42052;41.634;-0.946;2023-04-03T03:58:27;21.10;36.80
56172;DHT22;42052;41.634;-0.946;2023-04-03T04:01:13;21.10;36.90
56172;DHT22;42052;41.634;-0.946;2023-04-03T04:04:00;21.10;37.00
56172;DHT22;42052;41.634;-0.946;2023-04-03T04:06:46;21.10;36.90
56172;DHT22;42052;41.634;-0.946;2023-04-03T04:09:33;21.10;36.90
56172;DHT22;42052;41.634;-0.946;2023-04-03T04:12:19;21.10;36.90
56172;DHT22;42052;41.634;-0.946;2023-04-03T04:15:06;21.10;37.20
56172;DHT22;42052;41.634;-0.946;2023-04-03T04:17:52;21.00;37.00
56172;DHT22;42052;41.634;-0.946;2023-04-03T04:20:39;21.00;36.80
56172;DHT22;42052;41.634;-0.946;2023-04-03T04:23:28;21.10;37.40
56172;DHT22;42052;41.634;-0.946;2023-04-03T04:26:14;21.00;37.40
56172;DHT22;42052;41.634;-0.946;2023-04-03T04:29:00;21.00;37.10
56172;DHT22;42052;41.634;-0.946;2023-04-03T04:31:46;21.00;37.50
56172;DHT22;42052;41.634;-0.946;2023-04-03T04:34:32;21.00;37.60
56172;DHT22;42052;41.634;-0.946;2023-04-03T04:37:19;21.00;37.20
56172;DHT22;42052;41.634;-0.946;2023-04-03T04:40:06;21.00;37.30
56172;DHT22;42052;41.634;-0.946;2023-04-03T04:42:52;21.00;37.70
56172;DHT22;42052;41.634;-0.946;2023-04-03T04:45:38;21.00;37.70
56172;DHT22;42052;41.634;-0.946;2023-04-03T04:48:24;20.90;37.70
56172;DHT22;42052;41.634;-0.946;2023-04-03T04:51:11;21.00;37.60
56172;DHT22;42052;41.634;-0.946;2023-04-03T04:53:57;20.90;37.60
56172;DHT22;42052;41.634;-0.946;2023-04-03T04:56:43;20.90;37.50
56172;DHT22;42052;41.634;-0.946;2023-04-03T04:59:29;21.00;38.60
56172;DHT22;42052;41.634;-0.946;2023-04-03T05:02:15;21.00;37.90
56172;DHT22;42052;41.634;-0.946;2023-04-03T05:05:01;21.00;38.40
56172;DHT22;42052;41.634;-0.946;2023-04-03T05:07:47;21.00;38.40
56172;DHT22;42052;41.634;-0.946;2023-04-03T05:10:34;20.90;38.40
56172;DHT22;42052;41.634;-0.946;2023-04-03T05:13:20;20.90;38.30
56172;DHT22;42052;41.634;-0.946;2023-04-03T05:16:06;20.90;38.40
56172;DHT22;42052;41.634;-0.946;2023-04-03T05:18:52;21.00;38.20
56172;DHT22;42052;41.634;-0.946;2023-04-03T05:21:39;21.00;38.20
56172;DHT22;42052;41.634;-0.946;2023-04-03T05:24:25;21.00;37.80
56172;DHT22;42052;41.634;-0.946;2023-04-03T05:27:12;21.00;37.70
56172;DHT22;42052;41.634;-0.946;2023-04-03T05:29:58;21.00;37.70
56172;DHT22;42052;41.634;-0.946;2023-04-03T05:32:45;21.10;38.60
56172;DHT22;42052;41.634;-0.946;2023-04-03T05:35:31;21.10;39.50
56172;DHT22;42052;41.634;-0.946;2023-04-03T05:38:18;21.10;40.60
56172;DHT22;42052;41.634;-0.946;2023-04-03T05:41:04;21.20;40.90
56172;DHT22;42052;41.634;-0.946;2023-04-03T05:43:51;21.20;41.60
56172;DHT22;42052;41.634;-0.946;2023-04-03T05:46:37;21.20;43.40
56172;DHT22;42052;41.634;-0.946;2023-04-03T05:49:23;21.20;44.50
56172;DHT22;42052;41.634;-0.946;2023-04-03T05:52:25;21.20;45.60
56172;DHT22;42052;41.634;-0.946;2023-04-03T05:55:12;21.20;46.20
56172;DHT22;42052;41.634;-0.946;2023-04-03T05:57:58;21.20;50.00
56172;DHT22;42052;41.634;-0.946;2023-04-03T06:00:44;21.20;51.00
56172;DHT22;42052;41.634;-0.946;2023-04-03T06:03:31;21.20;50.40
56172;DHT22;42052;41.634;-0.946;2023-04-03T06:06:17;21.20;50.50
56172;DHT22;42052;41.634;-0.946;2023-04-03T06:09:03;21.20;49.90
56172;DHT22;42052;41.634;-0.946;2023-04-03T06:11:49;21.20;50.10
56172;DHT22;42052;41.634;-0.946;2023-04-03T06:14:36;21.10;49.10
56172;DHT22;42052;41.634;-0.946;2023-04-03T06:17:22;21.10;48.90
56172;DHT22;42052;41.634;-0.946;2023-04-03T06:20:09;21.10;49.30
56172;DHT22;42052;41.634;-0.946;2023-04-03T06:22:56;21.10;48.90
56172;DHT22;42052;41.634;-0.946;2023-04-03T06:25:45;21.10;48.40
56172;DHT22;42052;41.634;-0.946;2023-04-03T06:28:31;21.10;47.00
56172;DHT22;42052;41.634;-0.946;2023-04-03T06:31:18;21.10;48.00
56172;DHT22;42052;41.634;-0.946;2023-04-03T06:34:04;21.10;47.40
56172;DHT22;42052;41.634;-0.946;2023-04-03T06:36:51;21.10;48.00
56172;DHT22;42052;41.634;-0.946;2023-04-03T06:39:38;21.10;47.40
56172;DHT22;42052;41.634;-0.946;2023-04-03T06:42:24;21.10;47.00
56172;DHT22;42052;41.634;-0.946;2023-04-03T06:45:10;21.10;46.30
56172;DHT22;42052;41.634;-0.946;2023-04-03T06:47:57;21.10;46.30
56172;DHT22;42052;41.634;-0.946;2023-04-03T06:50:43;21.10;45.60
56172;DHT22;42052;41.634;-0.946;2023-04-03T06:53:29;21.10;45.00
56172;DHT22;42052;41.634;-0.946;2023-04-03T06:56:16;21.10;44.80
56172;DHT22;42052;41.634;-0.946;2023-04-03T06:59:03;21.10;44.80
56172;DHT22;42052;41.634;-0.946;2023-04-03T07:01:49;21.10;44.10
56172;DHT22;42052;41.634;-0.946;2023-04-03T07:04:35;21.10;43.30
56172;DHT22;42052;41.634;-0.946;2023-04-03T07:07:22;21.10;44.30
56172;DHT22;42052;41.634;-0.946;2023-04-03T07:10:08;21.10;43.90
56172;DHT22;42052;41.634;-0.946;2023-04-03T07:12:55;21.10;44.00
56172;DHT22;42052;41.634;-0.946;2023-04-03T07:15:41;21.10;42.80
56172;DHT22;42052;41.634;-0.946;2023-04-03T07:18:27;21.00;43.00
56172;DHT22;42052;41.634;-0.946;2023-04-03T07:21:14;21.10;42.50
56172;DHT22;42052;41.634;-0.946;2023-04-03T07:24:00;21.10;42.60
56172;DHT22;42052;41.634;-0.946;2023-04-03T07:26:49;21.00;43.40
56172;DHT22;42052;41.634;-0.946;2023-04-03T07:29:36;21.00;43.20
56172;DHT22;42052;41.634;-0.946;2023-04-03T07:32:22;21.00;43.10
56172;DHT22;42052;41.634;-0.946;2023-04-03T07:35:08;21.00;43.50
56172;DHT22;42052;41.634;-0.946;2023-04-03T07:37:54;21.00;43.30
56172;DHT22;42052;41.634;-0.946;2023-04-03T07:40:48;20.90;42.40
56172;DHT22;42052;41.634;-0.946;2023-04-03T07:43:35;21.00;43.00
56172;DHT22;42052;41.634;-0.946;2023-04-03T07:46:22;21.00;42.10
56172;DHT22;42052;41.634;-0.946;2023-04-03T07:49:09;21.00;41.50
56172;DHT22;42052;41.634;-0.946;2023-04-03T07:51:55;20.90;41.50
56172;DHT22;42052;41.634;-0.946;2023-04-03T07:54:41;21.00;42.00
56172;DHT22;42052;41.634;-0.946;2023-04-03T07:57:27;20.90;41.60
56172;DHT22;42052;41.634;-0.946;2023-04-03T08:00:14;20.90;42.70
56172;DHT22;42052;41.634;-0.946;2023-04-03T08:03:00;20.90;41.50
56172;DHT22;42052;41.634;-0.946;2023-04-03T08:05:49;20.90;41.30
56172;DHT22;42052;41.634;-0.946;2023-04-03T08:08:35;20.90;40.90
56172;DHT22;42052;41.634;-0.946;2023-04-03T08:11:21;21.00;41.20
56172;DHT22;42052;41.634;-0.946;2023-04-03T08:14:09;20.90;41.00
56172;DHT22;42052;41.634;-0.946;2023-04-03T08:17:01;20.90;40.90
56172;DHT22;42052;41.634;-0.946;2023-04-03T08:19:48;20.90;40.40
56172;DHT22;42052;41.634;-0.946;2023-04-03T08:22:35;20.90;40.90
56172;DHT22;42052;41.634;-0.946;2023-04-03T08:25:21;20.90;40.60
56172;DHT22;42052;41.634;-0.946;2023-04-03T08:28:08;20.90;40.60
56172;DHT22;42052;41.634;-0.946;2023-04-03T08:30:54;20.90;40.30
56172;DHT22;42052;41.634;-0.946;2023-04-03T08:33:41;20.90;40.50
56172;DHT22;42052;41.634;-0.946;2023-04-03T08:36:29;20.90;40.30
56172;DHT22;42052;41.634;-0.946;2023-04-03T08:39:16;20.90;40.20
56172;DHT22;42052;41.634;-0.946;2023-04-03T08:42:10;20.90;40.50
56172;DHT22;42052;41.634;-0.946;2023-04-03T08:45:22;20.90;41.00
56172;DHT22;42052;41.634;-0.946;2023-04-03T08:51:15;20.90;40.60
56172;DHT22;42052;41.634;-0.946;2023-04-03T08:54:06;20.90;40.60
56172;DHT22;42052;41.634;-0.946;2023-04-03T08:56:55;20.90;40.60
56172;DHT22;42052;41.634;-0.946;2023-04-03T08:59:41;20.90;40.90
56172;DHT22;42052;41.634;-0.946;2023-04-03T09:02:32;20.90;40.70
56172;DHT22;42052;41.634;-0.946;2023-04-03T09:05:35;20.90;41.00
56172;DHT22;42052;41.634;-0.946;2023-04-03T09:08:29;20.90;41.00
56172;DHT22;42052;41.634;-0.946;2023-04-03T09:11:25;20.90;40.80
56172;DHT22;42052;41.634;-0.946;2023-04-03T09:14:41;20.90;40.80
56172;DHT22;42052;41.634;-0.946;2023-04-03T09:20:22;20.90;40.80
56172;DHT22;42052;41.634;-0.946;2023-04-03T09:23:32;20.90;40.60
56172;DHT22;42052;41.634;-0.946;2023-04-03T09:26:44;20.90;40.60
56172;DHT22;42052;41.634;-0.946;2023-04-03T09:29:34;21.00;40.80
56172;DHT22;42052;41.634;-0.946;2023-04-03T09:35:35;21.00;40.70
56172;DHT22;42052;41.634;-0.946;2023-04-03T09:38:22;21.00;40.60
56172;DHT22;42052;41.634;-0.946;2023-04-03T09:41:22;21.00;40.60
56172;DHT22;42052;41.634;-0.946;2023-04-03T09:44:41;21.00;40.40
56172;DHT22;42052;41.634;-0.946;2023-04-03T09:47:31;21.00;40.40
56172;DHT22;42052;41.634;-0.946;2023-04-03T09:50:21;21.00;40.40
56172;DHT22;42052;41.634;-0.946;2023-04-03T09:53:36;21.00;40.50
56172;DHT22;42052;41.634;-0.946;2023-04-03T09:56:29;21.00;40.10
56172;DHT22;42052;41.634;-0.946;2023-04-03T09:59:16;21.00;40.00
56172;DHT22;42052;41.634;-0.946;2023-04-03T10:02:28;21.00;40.10
56172;DHT22;42052;41.634;-0.946;2023-04-03T10:08:24;21.10;40.10
56172;DHT22;42052;41.634;-0.946;2023-04-03T10:11:16;21.00;39.90
56172;DHT22;42052;41.634;-0.946;2023-04-03T10:14:03;21.00;39.60
56172;DHT22;42052;41.634;-0.946;2023-04-03T10:19:59;21.10;39.90
56172;DHT22;42052;41.634;-0.946;2023-04-03T10:23:51;21.00;39.80
56172;DHT22;42052;41.634;-0.946;2023-04-03T10:29:15;21.00;39.80
56172;DHT22;42052;41.634;-0.946;2023-04-03T10:32:54;21.10;39.80
56172;DHT22;42052;41.634;-0.946;2023-04-03T10:53:46;21.10;39.80
56172;DHT22;42052;41.634;-0.946;2023-04-03T10:56:40;21.10;40.00
56172;DHT22;42052;41.634;-0.946;2023-04-03T10:59:55;21.10;40.00
56172;DHT22;42052;41.634;-0.946;2023-04-03T11:02:52;21.10;40.20
56172;DHT22;42052;41.634;-0.946;2023-04-03T11:05:47;21.10;39.90
56172;DHT22;42052;41.634;-0.946;2023-04-03T11:11:44;21.10;39.90
56172;DHT22;42052;41.634;-0.946;2023-04-03T11:14:33;21.20;39.80
56172;DHT22;42052;41.634;-0.946;2023-04-03T11:17:28;21.10;39.70
56172;DHT22;42052;41.634;-0.946;2023-04-03T11:20:30;21.10;39.90
56172;DHT22;42052;41.634;-0.946;2023-04-03T11:23:25;21.20;39.80
56172;DHT22;42052;41.634;-0.946;2023-04-03T11:26:20;21.20;39.90
56172;DHT22;42052;41.634;-0.946;2023-04-03T11:29:12;21.20;39.80
56172;DHT22;42052;41.634;-0.946;2023-04-03T11:35:47;21.20;39.40
56172;DHT22;42052;41.634;-0.946;2023-04-03T11:38:41;21.20;39.80
56172;DHT22;42052;41.634;-0.946;2023-04-03T11:41:31;21.20;39.80
56172;DHT22;42052;41.634;-0.946;2023-04-03T11:44:35;21.20;39.70
56172;DHT22;42052;41.634;-0.946;2023-04-03T11:47:47;21.20;39.90
56172;DHT22;42052;41.634;-0.946;2023-04-03T11:53:32;21.20;39.50
56172;DHT22;42052;41.634;-0.946;2023-04-03T11:59:22;21.20;39.50
56172;DHT22;42052;41.634;-0.946;2023-04-03T12:02:34;21.20;39.50
56172;DHT22;42052;41.634;-0.946;2023-04-03T12:05:30;21.20;39.50
56172;DHT22;42052;41.634;-0.946;2023-04-03T12:08:28;21.20;39.40
56172;DHT22;42052;41.634;-0.946;2023-04-03T12:11:30;21.20;39.60
56172;DHT22;42052;41.634;-0.946;2023-04-03T12:14:17;21.20;39.40
56172;DHT22;42052;41.634;-0.946;2023-04-03T12:17:12;21.20;39.20
56172;DHT22;42052;41.634;-0.946;2023-04-03T12:23:34;21.30;39.50
56172;DHT22;42052;41.634;-0.946;2023-04-03T12:26:25;21.20;39.40
56172;DHT22;42052;41.634;-0.946;2023-04-03T12:29:27;21.20;39.40
56172;DHT22;42052;41.634;-0.946;2023-04-03T12:36:07;21.30;39.30
56172;DHT22;42052;41.634;-0.946;2023-04-03T12:39:31;21.30;39.20
56172;DHT22;42052;41.634;-0.946;2023-04-03T12:45:41;21.30;39.20
56172;DHT22;42052;41.634;-0.946;2023-04-03T12:48:32;21.30;39.20
56172;DHT22;42052;41.634;-0.946;2023-04-03T12:57:18;21.30;39.00
56172;DHT22;42052;41.634;-0.946;2023-04-03T13:00:25;21.30;39.20
56172;DHT22;42052;41.634;-0.946;2023-04-03T13:03:25;21.40;39.20
56172;DHT22;42052;41.634;-0.946;2023-04-03T13:06:18;21.40;39.30
56172;DHT22;42052;41.634;-0.946;2023-04-03T13:09:14;21.40;39.10
56172;DHT22;42052;41.634;-0.946;2023-04-03T13:12:13;21.30;39.10
56172;DHT22;42052;41.634;-0.946;2023-04-03T13:15:11;21.40;39.20
56172;DHT22;42052;41.634;-0.946;2023-04-03T13:17:57;21.30;39.10
56172;DHT22;42052;41.634;-0.946;2023-04-03T13:20:47;21.40;39.20
56172;DHT22;42052;41.634;-0.946;2023-04-03T13:23:36;21.40;39.20
56172;DHT22;42052;41.634;-0.946;2023-04-03T13:26:26;21.30;39.30
56172;DHT22;42052;41.634;-0.946;2023-04-03T13:29:31;21.40;39.20
56172;DHT22;42052;41.634;-0.946;2023-04-03T13:32:21;21.40;39.20
56172;DHT22;42052;41.634;-0.946;2023-04-03T13:35:38;21.40;39.20
56172;DHT22;42052;41.634;-0.946;2023-04-03T13:38:29;21.40;39.20
56172;DHT22;42052;41.634;-0.946;2023-04-03T13:41:25;21.40;39.10
56172;DHT22;42052;41.634;-0.946;2023-04-03T13:47:24;21.40;39.30
56172;DHT22;42052;41.634;-0.946;2023-04-03T13:50:23;21.40;39.40
56172;DHT22;42052;41.634;-0.946;2023-04-03T13:53:13;21.40;39.30
56172;DHT22;42052;41.634;-0.946;2023-04-03T13:56:18;21.40;39.10
56172;DHT22;42052;41.634;-0.946;2023-04-03T14:04:54;21.40;39.20
56172;DHT22;42052;41.634;-0.946;2023-04-03T14:07:43;21.40;39.30
56172;DHT22;42052;41.634;-0.946;2023-04-03T14:10:30;21.40;39.20
56172;DHT22;42052;41.634;-0.946;2023-04-03T14:13:18;21.40;39.30
56172;DHT22;42052;41.634;-0.946;2023-04-03T14:16:04;21.40;39.00
56172;DHT22;42052;41.634;-0.946;2023-04-03T14:18:51;21.40;39.20
56172;DHT22;42052;41.634;-0.946;2023-04-03T14:21:38;21.40;39.30
56172;DHT22;42052;41.634;-0.946;2023-04-03T14:24:25;21.30;39.10
56172;DHT22;42052;41.634;-0.946;2023-04-03T14:30:03;21.40;39.20
56172;DHT22;42052;41.634;-0.946;2023-04-03T14:32:50;21.40;39.20
56172;DHT22;42052;41.634;-0.946;2023-04-03T14:35:37;21.30;39.20
56172;DHT22;42052;41.634;-0.946;2023-04-03T14:38:27;21.40;39.20
56172;DHT22;42052;41.634;-0.946;2023-04-03T14:41:16;21.40;39.10
56172;DHT22;42052;41.634;-0.946;2023-04-03T14:44:02;21.40;39.20
56172;DHT22;42052;41.634;-0.946;2023-04-03T14:46:48;21.40;39.10
56172;DHT22;42052;41.634;-0.946;2023-04-03T14:49:35;21.40;38.90
56172;DHT22;42052;41.634;-0.946;2023-04-03T14:52:32;21.40;39.10
56172;DHT22;42052;41.634;-0.946;2023-04-03T14:55:20;21.40;39.00
56172;DHT22;42052;41.634;-0.946;2023-04-03T14:58:11;21.40;39.00
56172;DHT22;42052;41.634;-0.946;2023-04-03T15:00:58;21.40;39.10
56172;DHT22;42052;41.634;-0.946;2023-04-03T15:03:44;21.40;39.00
56172;DHT22;42052;41.634;-0.946;2023-04-03T15:06:31;21.40;39.10
56172;DHT22;42052;41.634;-0.946;2023-04-03T15:09:22;21.40;38.90
56172;DHT22;42052;41.634;-0.946;2023-04-03T15:12:09;21.40;39.00
56172;DHT22;42052;41.634;-0.946;2023-04-03T15:14:55;21.40;39.10
56172;DHT22;42052;41.634;-0.946;2023-04-03T15:17:42;21.40;39.10
56172;DHT22;42052;41.634;-0.946;2023-04-03T15:20:29;21.40;39.00
56172;DHT22;42052;41.634;-0.946;2023-04-03T15:23:17;21.40;39.10
56172;DHT22;42052;41.634;-0.946;2023-04-03T15:26:03;21.40;39.10
56172;DHT22;42052;41.634;-0.946;2023-04-03T15:28:50;21.40;39.00
56172;DHT22;42052;41.634;-0.946;2023-04-03T15:31:37;21.40;38.90
56172;DHT22;42052;41.634;-0.946;2023-04-03T15:34:23;21.40;38.90
56172;DHT22;42052;41.634;-0.946;2023-04-03T15:37:09;21.40;38.90
56172;DHT22;42052;41.634;-0.946;2023-04-03T15:39:56;21.40;39.00
56172;DHT22;42052;41.634;-0.946;2023-04-03T15:42:42;21.40;39.00
56172;DHT22;42052;41.634;-0.946;2023-04-03T15:45:29;21.40;39.10
56172;DHT22;42052;41.634;-0.946;2023-04-03T15:48:16;21.40;39.00
56172;DHT22;42052;41.634;-0.946;2023-04-03T15:51:02;21.40;39.10
56172;DHT22;42052;41.634;-0.946;2023-04-03T15:53:48;21.40;38.90
56172;DHT22;42052;41.634;-0.946;2023-04-03T15:56:35;21.40;38.80
56172;DHT22;42052;41.634;-0.946;2023-04-03T15:59:21;21.40;38.80
56172;DHT22;42052;41.634;-0.946;2023-04-03T16:02:09;21.40;38.90
56172;DHT22;42052;41.634;-0.946;2023-04-03T16:04:56;21.40;38.80
56172;DHT22;42052;41.634;-0.946;2023-04-03T16:07:42;21.40;38.70
56172;DHT22;42052;41.634;-0.946;2023-04-03T16:10:29;21.40;38.80
56172;DHT22;42052;41.634;-0.946;2023-04-03T16:13:15;21.40;38.80
56172;DHT22;42052;41.634;-0.946;2023-04-03T16:16:02;21.40;38.70
56172;DHT22;42052;41.634;-0.946;2023-04-03T16:18:48;21.40;38.60
56172;DHT22;42052;41.634;-0.946;2023-04-03T16:21:38;21.40;38.60
56172;DHT22;42052;41.634;-0.946;2023-04-03T16:24:24;21.40;38.60
56172;DHT22;42052;41.634;-0.946;2023-04-03T16:27:10;21.40;38.70
56172;DHT22;42052;41.634;-0.946;2023-04-03T16:29:57;21.40;39.20
56172;DHT22;42052;41.634;-0.946;2023-04-03T16:32:44;21.40;39.10
56172;DHT22;42052;41.634;-0.946;2023-04-03T16:35:30;21.40;39.00
56172;DHT22;42052;41.634;-0.946;2023-04-03T16:38:16;21.40;39.00
56172;DHT22;42052;41.634;-0.946;2023-04-03T16:41:04;21.40;38.90
56172;DHT22;42052;41.634;-0.946;2023-04-03T16:43:50;21.40;38.90
56172;DHT22;42052;41.634;-0.946;2023-04-03T16:46:37;21.40;38.90
56172;DHT22;42052;41.634;-0.946;2023-04-03T16:49:23;21.50;38.90
56172;DHT22;42052;41.634;-0.946;2023-04-03T16:52:09;21.50;38.70
56172;DHT22;42052;41.634;-0.946;2023-04-03T16:54:58;21.40;38.90
56172;DHT22;42052;41.634;-0.946;2023-04-03T16:57:44;21.50;38.90
56172;DHT22;42052;41.634;-0.946;2023-04-03T17:00:31;21.50;38.90
56172;DHT22;42052;41.634;-0.946;2023-04-03T17:03:17;21.40;39.10
56172;DHT22;42052;41.634;-0.946;2023-04-03T17:06:03;21.40;38.90
56172;DHT22;42052;41.634;-0.946;2023-04-03T17:08:51;21.40;38.80
56172;DHT22;42052;41.634;-0.946;2023-04-03T17:11:38;21.40;38.70
56172;DHT22;42052;41.634;-0.946;2023-04-03T17:14:25;21.40;38.80
56172;DHT22;42052;41.634;-0.946;2023-04-03T17:17:11;21.40;38.70
56172;DHT22;42052;41.634;-0.946;2023-04-03T17:19:57;21.40;38.80
56172;DHT22;42052;41.634;-0.946;2023-04-03T17:22:44;21.40;38.70
56172;DHT22;42052;41.634;-0.946;2023-04-03T17:25:30;21.40;38.80
56172;DHT22;42052;41.634;-0.946;2023-04-03T17:28:16;21.40;38.80
56172;DHT22;42052;41.634;-0.946;2023-04-03T17:31:02;21.40;38.70
56172;DHT22;42052;41.634;-0.946;2023-04-03T17:33:49;21.40;38.90
56172;DHT22;42052;41.634;-0.946;2023-04-03T17:36:35;21.40;38.90
56172;DHT22;42052;41.634;-0.946;2023-04-03T17:39:22;21.40;38.80
56172;DHT22;42052;41.634;-0.946;2023-04-03T17:42:08;21.40;38.90
56172;DHT22;42052;41.634;-0.946;2023-04-03T17:44:54;21.40;38.90
56172;DHT22;42052;41.634;-0.946;2023-04-03T17:47:40;21.40;38.90
56172;DHT22;42052;41.634;-0.946;2023-04-03T17:50:26;21.40;38.90
56172;DHT22;42052;41.634;-0.946;2023-04-03T17:53:13;21.40;38.80
56172;DHT22;42052;41.634;-0.946;2023-04-03T17:56:14;21.40;39.00
56172;DHT22;42052;41.634;-0.946;2023-04-03T17:59:00;21.40;38.80
56172;DHT22;42052;41.634;-0.946;2023-04-03T18:01:47;21.40;39.00
56172;DHT22;42052;41.634;-0.946;2023-04-03T18:04:33;21.40;38.90
56172;DHT22;42052;41.634;-0.946;2023-04-03T18:07:19;21.40;38.90
56172;DHT22;42052;41.634;-0.946;2023-04-03T18:10:07;21.40;39.00
56172;DHT22;42052;41.634;-0.946;2023-04-03T18:12:54;21.40;38.90
56172;DHT22;42052;41.634;-0.946;2023-04-03T18:15:40;21.40;39.00
56172;DHT22;42052;41.634;-0.946;2023-04-03T18:18:30;21.40;38.90
56172;DHT22;42052;41.634;-0.946;2023-04-03T18:21:16;21.40;38.80
56172;DHT22;42052;41.634;-0.946;2023-04-03T18:24:05;21.40;38.90
56172;DHT22;42052;41.634;-0.946;2023-04-03T18:27:00;21.40;38.90
56172;DHT22;42052;41.634;-0.946;2023-04-03T18:29:53;21.40;38.90
56172;DHT22;42052;41.634;-0.946;2023-04-03T18:32:42;21.40;38.90
56172;DHT22;42052;41.634;-0.946;2023-04-03T18:35:28;21.40;38.90
56172;DHT22;42052;41.634;-0.946;2023-04-03T18:38:14;21.40;39.00
56172;DHT22;42052;41.634;-0.946;2023-04-03T18:41:02;21.40;38.90
56172;DHT22;42052;41.634;-0.946;2023-04-03T18:43:50;21.40;38.90
56172;DHT22;42052;41.634;-0.946;2023-04-03T18:46:36;21.40;38.90
56172;DHT22;42052;41.634;-0.946;2023-04-03T18:49:22;21.40;38.90
56172;DHT22;42052;41.634;-0.946;2023-04-03T18:52:10;21.40;38.90